Time;durP1;ratioP1;P1;durP2;ratioP2;P2;SDS_P1;SDS_P2;PMS_P1;PMS_P2;Temp;Humidity;BMP_temperature;BMP_pressure;BME280_temperature;BME280_humidity;BME280_pressure;Samples;Min_cycle;Max_cycle;Signal;HPM_P1;HPM_P2
2020/12/05 00:00:10;;;;;;;22.67;11.03;;;;;;;8.23;68.80;97929.94;1523132;94;21233;-67
2020/12/05 00:02:41;;;;;;;22.33;10.17;;;;;;;8.23;68.86;97932.08;1523070;94;21191;-69
2020/12/05 00:05:13;;;;;;;21.35;10.70;;;;;;;8.21;68.85;97930.87;1522835;94;21231;-69
2020/12/05 00:07:39;;;;;;;22.20;10.55;;;;;;;8.22;68.92;97930.50;1523007;94;21218;-68
2020/12/05 00:10:07;;;;;;;22.83;10.93;;;;;;;8.22;68.91;97933.20;1523186;94;21339;-67
2020/12/05 00:12:35;;;;;;;23.80;10.37;;;;;;;8.21;68.94;97937.63;1522838;94;21567;-67
2020/12/05 00:15:03;;;;;;;22.03;10.60;;;;;;;8.18;68.83;97935.59;1522689;94;21227;-66
2020/12/05 00:17:31;;;;;;;21.87;10.73;;;;;;;8.22;68.97;97948.06;1523075;94;21199;-69
2020/12/05 00:19:59;;;;;;;23.03;10.93;;;;;;;8.22;68.93;97939.95;1523617;94;21187;-67
2020/12/05 00:22:28;;;;;;;23.00;10.73;;;;;;;8.25;68.88;97941.95;1523313;94;21199;-67
2020/12/05 00:24:55;;;;;;;22.30;10.57;;;;;;;8.26;68.86;97938.69;1523345;94;21213;-69
2020/12/05 00:27:22;;;;;;;25.43;10.53;;;;;;;8.26;68.77;97942.18;1523262;94;21190;-67
2020/12/05 00:29:49;;;;;;;22.73;10.13;;;;;;;8.23;68.79;97933.43;1523339;94;21197;-68
2020/12/05 00:32:16;;;;;;;21.87;10.70;;;;;;;8.19;68.93;97940.66;1523362;94;21199;-68
2020/12/05 00:34:43;;;;;;;24.00;11.33;;;;;;;8.17;68.97;97939.45;1523500;94;21568;-68
2020/12/05 00:37:10;;;;;;;21.03;10.93;;;;;;;8.14;69.08;97942.82;1523176;94;21623;-69
2020/12/05 00:43:18;;;;;;;19.33;9.73;;;;;;;8.04;69.37;97943.34;1523162;94;21182;-69
2020/12/05 00:45:45;;;;;;;21.40;9.27;;;;;;;8.08;69.28;97956.38;1523232;94;21266;-68
2020/12/05 00:48:12;;;;;;;18.80;9.17;;;;;;;8.12;69.26;97955.34;1523127;94;21643;-68
2020/12/05 00:50:40;;;;;;;18.43;9.40;;;;;;;8.11;69.39;97947.58;1523208;94;21340;-68
2020/12/05 00:53:07;;;;;;;17.83;8.97;;;;;;;8.09;69.49;97956.05;1523224;94;21206;-68
2020/12/05 00:55:34;;;;;;;18.37;9.23;;;;;;;8.15;69.44;97961.95;1523165;94;21179;-68
2020/12/05 00:58:00;;;;;;;19.53;8.77;;;;;;;8.19;69.42;97970.94;1523133;94;21155;-68
2020/12/05 01:00:27;;;;;;;18.87;9.13;;;;;;;8.24;69.33;97970.69;1523125;94;21610;-69
2020/12/05 01:02:54;;;;;;;21.50;10.33;;;;;;;8.24;69.37;97970.69;1523449;94;21567;-66
2020/12/05 01:05:21;;;;;;;18.53;9.20;;;;;;;8.21;69.33;97967.34;1523221;94;21198;-67
2020/12/05 01:07:48;;;;;;;22.27;9.47;;;;;;;8.25;69.32;97973.02;1523606;94;21163;-67
2020/12/05 01:10:14;;;;;;;20.87;9.13;;;;;;;8.28;69.33;97977.53;1523207;94;21232;-68
2020/12/05 01:12:41;;;;;;;18.83;9.63;;;;;;;8.30;69.30;97974.72;1523170;94;21169;-66
2020/12/05 01:15:08;;;;;;;16.93;8.60;;;;;;;8.31;69.28;97968.75;1516935;94;21167;-68
2020/12/05 01:17:35;;;;;;;20.63;9.63;;;;;;;8.33;69.27;97972.66;1512177;94;21614;-68
2020/12/05 01:20:06;;;;;;;18.27;9.83;;;;;;;8.34;69.27;97970.19;1512535;95;21598;-67
2020/12/05 01:22:33;;;;;;;19.80;9.83;;;;;;;8.36;69.19;97963.09;1512297;95;21179;-68
2020/12/05 01:25:00;;;;;;;18.70;9.47;;;;;;;8.40;69.16;97959.32;1512143;94;21358;-67
2020/12/05 01:27:27;;;;;;;19.00;9.10;;;;;;;8.46;69.03;97965.27;1512108;95;21180;-67
2020/12/05 01:29:54;;;;;;;19.20;9.77;;;;;;;8.49;68.92;97965.34;1512129;95;21199;-67
2020/12/05 01:32:21;;;;;;;22.87;10.60;;;;;;;8.52;68.96;97977.36;1512203;95;21329;-68
2020/12/05 01:34:47;;;;;;;19.03;9.07;;;;;;;8.51;68.87;97969.06;1512284;95;21329;-68
2020/12/05 01:37:16;;;;;;;21.17;10.50;;;;;;;8.54;68.80;97973.77;1512545;94;21198;-69
2020/12/05 01:43:26;;;;;;;18.57;9.40;;;;;;;8.58;68.75;97978.69;1512165;95;21766;-68
2020/12/05 01:45:52;;;;;;;16.90;9.00;;;;;;;8.52;68.58;97971.95;1512239;94;21607;-67
2020/12/05 01:48:20;;;;;;;19.70;10.03;;;;;;;8.53;68.54;97964.86;1512560;94;21183;-67
2020/12/05 01:50:47;;;;;;;21.60;9.43;;;;;;;8.56;68.58;97964.16;1512470;94;21301;-68
2020/12/05 01:53:14;;;;;;;18.80;8.37;;;;;;;8.61;68.50;97968.52;1512234;94;21333;-67
2020/12/05 01:55:47;;;;;;;18.23;9.37;;;;;;;8.57;68.51;97960.33;1512233;95;21194;-65
2020/12/05 01:58:14;;;;;;;18.27;8.97;;;;;;;8.60;68.52;97956.13;1512415;94;21167;-66
2020/12/05 02:00:42;;;;;;;18.47;9.23;;;;;;;8.61;68.47;97956.36;1512487;94;21333;-66
2020/12/05 02:03:09;;;;;;;20.03;9.90;;;;;;;8.62;68.48;97959.28;1492279;95;21194;-66
2020/12/05 02:06:09;;;;;;;19.33;9.97;;;;;;;8.61;68.45;97961.20;1511418;95;21607;-65
2020/12/05 02:09:05;;;;;;;19.03;9.33;;;;;;;8.60;68.46;97962.89;1410759;101;21686;-66
2020/12/05 02:11:38;;;;;;;20.20;9.33;;;;;;;8.60;68.39;97954.22;1424852;101;21441;-65
2020/12/05 02:14:07;;;;;;;19.50;9.13;;;;;;;8.62;68.36;97956.58;1484418;94;21659;-64
2020/12/05 02:16:34;;;;;;;18.73;9.23;;;;;;;8.59;68.45;97961.31;1512138;95;21341;-63
2020/12/05 02:19:02;;;;;;;18.90;8.90;;;;;;;8.59;68.43;97962.09;1512595;94;21603;-64
2020/12/05 02:21:29;;;;;;;19.67;9.17;;;;;;;8.57;68.58;97962.24;1512128;95;21192;-64
2020/12/05 02:23:58;;;;;;;19.10;9.87;;;;;;;8.57;68.63;97963.03;1512070;95;21196;-65
2020/12/05 02:26:26;;;;;;;21.43;10.23;;;;;;;8.58;68.67;97962.47;1511661;95;21170;-64
2020/12/05 02:28:53;;;;;;;21.60;10.43;;;;;;;8.60;68.63;97959.63;1473370;95;21198;-66
2020/12/05 02:31:20;;;;;;;18.73;9.93;;;;;;;8.64;68.55;97968.60;1512087;94;21187;-67
2020/12/05 02:33:46;;;;;;;18.80;10.20;;;;;;;8.66;68.51;97971.72;1512061;95;21187;-68
2020/12/05 02:36:13;;;;;;;17.97;9.60;;;;;;;8.67;68.50;97967.11;1512135;95;21164;-66
2020/12/05 02:39:00;;;;;;;18.40;9.43;;;;;;;8.67;68.50;97960.34;1512063;95;21226;-66
2020/12/05 02:41:28;;;;;;;19.07;9.97;;;;;;;8.64;68.59;97957.79;1512511;95;21220;-66
2020/12/05 02:43:55;;;;;;;18.93;9.83;;;;;;;8.67;68.51;97956.30;1512175;95;21703;-66
2020/12/05 02:46:22;;;;;;;18.87;9.77;;;;;;;8.70;68.50;97947.47;1512077;95;21204;-65
2020/12/05 02:48:48;;;;;;;19.87;9.70;;;;;;;8.71;68.51;97954.45;1492123;95;21140;-66
2020/12/05 02:51:15;;;;;;;16.93;8.57;;;;;;;8.73;68.42;97948.91;1512116;95;21216;-67
2020/12/05 02:53:42;;;;;;;18.27;9.47;;;;;;;8.72;68.49;97952.77;1512110;95;21194;-66
2020/12/05 02:56:13;;;;;;;20.03;10.47;;;;;;;8.73;68.47;97948.91;1512348;94;21598;-66
2020/12/05 02:58:39;;;;;;;21.03;9.73;;;;;;;8.74;68.50;97950.48;1491824;95;21616;-66
2020/12/05 03:01:06;;;;;;;19.27;10.03;;;;;;;8.76;68.47;97959.60;1512190;95;21596;-67
2020/12/05 03:03:33;;;;;;;18.00;9.80;;;;;;;8.80;68.39;97962.38;1492223;95;21168;-66
2020/12/05 03:06:00;;;;;;;20.03;9.77;;;;;;;8.81;68.39;97965.31;1512181;95;21135;-66
2020/12/05 03:12:10;;;;;;;22.43;10.20;;;;;;;8.81;68.31;97964.72;1512125;95;21182;-67
2020/12/05 03:14:37;;;;;;;22.93;9.77;;;;;;;8.77;68.25;97962.53;1513345;94;21196;-66
2020/12/05 03:17:04;;;;;;;18.30;9.33;;;;;;;8.70;68.42;97953.67;1523501;94;21312;-67
2020/12/05 03:19:31;;;;;;;18.37;9.33;;;;;;;8.69;68.53;97963.50;1523067;94;21599;-66
2020/12/05 03:21:57;;;;;;;19.60;9.00;;;;;;;8.64;68.66;97954.30;1523264;94;21615;-66
2020/12/05 03:28:06;;;;;;;20.20;10.33;;;;;;;8.65;68.72;97972.09;1523124;94;21297;-67
2020/12/05 03:30:33;;;;;;;17.30;9.20;;;;;;;8.62;68.65;97972.20;1523076;94;21158;-66
2020/12/05 03:33:00;;;;;;;18.53;9.10;;;;;;;8.66;68.65;97971.72;1523088;94;21159;-66
2020/12/05 03:35:28;;;;;;;18.77;9.93;;;;;;;8.66;68.69;97966.91;1523188;94;21190;-66
2020/12/05 03:37:55;;;;;;;19.00;10.43;;;;;;;8.67;68.72;97972.52;1523377;94;21619;-66
2020/12/05 03:44:04;;;;;;;19.97;9.63;;;;;;;8.64;68.81;97953.73;1523382;94;21151;-65
2020/12/05 03:46:31;;;;;;;21.57;10.17;;;;;;;8.61;68.75;97953.09;1499768;94;21670;-64
2020/12/05 03:48:59;;;;;;;21.77;10.33;;;;;;;8.61;68.79;97955.00;1523393;94;21143;-64
2020/12/05 03:51:27;;;;;;;22.37;10.47;;;;;;;8.60;68.80;97952.08;1523616;94;21249;-65
2020/12/05 03:53:54;;;;;;;20.33;9.70;;;;;;;8.58;68.88;97948.95;1523285;94;21143;-64
2020/12/05 03:56:21;;;;;;;21.87;10.50;;;;;;;8.54;68.99;97941.33;1523414;94;21209;-65
2020/12/05 03:58:50;;;;;;;20.17;10.57;;;;;;;8.56;68.97;97945.80;1523564;94;21170;-67
2020/12/05 04:01:17;;;;;;;21.93;10.50;;;;;;;8.54;69.00;97944.03;1523111;94;21290;-63
2020/12/05 04:03:44;;;;;;;22.43;11.10;;;;;;;8.53;69.12;97949.21;1523261;94;21622;-67
2020/12/05 04:06:12;;;;;;;19.83;9.63;;;;;;;8.52;69.13;97953.04;1523144;94;21183;-66
2020/12/05 04:08:40;;;;;;;20.03;10.47;;;;;;;8.46;69.31;97949.83;1523439;94;21647;-66
2020/12/05 04:11:07;;;;;;;22.70;10.03;;;;;;;8.47;69.30;97948.68;1523209;94;21552;-65
2020/12/05 04:13:35;;;;;;;18.63;10.50;;;;;;;8.43;69.49;97955.95;1523160;94;21623;-65
2020/12/05 04:16:02;;;;;;;19.97;9.40;;;;;;;8.44;69.49;97954.79;1516939;94;21593;-66
2020/12/05 04:18:29;;;;;;;20.23;9.97;;;;;;;8.44;69.48;97954.79;1512258;94;21148;-66
2020/12/05 04:20:55;;;;;;;18.03;8.87;;;;;;;8.46;69.47;97954.45;1512544;94;21397;-66
2020/12/05 04:23:22;;;;;;;20.70;10.47;;;;;;;8.50;69.48;97955.32;1512146;95;21171;-67
2020/12/05 04:25:49;;;;;;;17.93;9.07;;;;;;;8.53;69.40;97953.27;1512137;95;21176;-66
2020/12/05 04:28:16;;;;;;;17.63;9.53;;;;;;;8.54;69.35;97944.03;1512231;95;21616;-67
2020/12/05 04:30:43;;;;;;;21.13;11.10;;;;;;;8.51;69.46;97959.01;1512310;95;21644;-66
2020/12/05 04:33:10;;;;;;;20.57;10.80;;;;;;;8.46;69.74;97963.34;1512331;94;21191;-67
2020/12/05 04:35:37;;;;;;;22.07;10.60;;;;;;;8.25;70.73;97962.78;1512256;94;21183;-67
2020/12/05 04:38:03;;;;;;;18.90;9.30;;;;;;;8.34;70.31;97968.05;1512340;95;21159;-65
2020/12/05 04:44:12;;;;;;;19.27;9.33;;;;;;;8.48;70.18;97962.41;1512337;95;21181;-67
2020/12/05 04:46:39;;;;;;;19.00;10.23;;;;;;;8.50;70.12;97962.08;1511794;94;21218;-65
2020/12/05 04:49:06;;;;;;;17.03;9.27;;;;;;;8.56;69.97;97967.42;1512192;94;21314;-66
2020/12/05 04:51:38;;;;;;;19.50;9.43;;;;;;;8.58;69.90;97959.77;1492515;95;21195;-64
2020/12/05 04:54:07;;;;;;;18.73;8.90;;;;;;;8.57;70.08;97960.33;1512267;94;21183;-66
2020/12/05 04:56:38;;;;;;;16.03;7.80;;;;;;;8.59;69.98;97965.37;1512190;94;21171;-68
2020/12/05 04:59:07;;;;;;;18.27;9.00;;;;;;;8.55;70.13;97973.39;1512154;95;21204;-67
2020/12/05 05:01:36;;;;;;;17.27;8.77;;;;;;;8.54;70.15;97973.77;1512461;95;21188;-64
2020/12/05 05:04:04;;;;;;;16.87;8.83;;;;;;;8.52;70.25;97981.42;1512154;94;21207;-66
2020/12/05 05:06:32;;;;;;;19.37;9.43;;;;;;;8.51;70.33;97982.58;1512549;95;21587;-68
2020/12/05 05:08:59;;;;;;;17.83;9.33;;;;;;;8.52;70.32;97983.56;1512269;95;21649;-67
2020/12/05 05:11:27;;;;;;;18.47;9.07;;;;;;;8.56;70.26;97978.23;1512540;95;21309;-65
2020/12/05 05:14:02;;;;;;;17.40;8.83;;;;;;;8.54;70.40;97979.95;1512166;95;21191;-67
2020/12/05 05:16:28;;;;;;;18.60;8.67;;;;;;;8.57;70.40;97981.16;1512335;94;21199;-64
2020/12/05 05:18:57;;;;;;;16.87;8.50;;;;;;;8.53;70.48;97989.19;1512470;94;21619;-69
2020/12/05 05:21:39;;;;;;;16.83;8.60;;;;;;;8.53;70.57;97985.13;1512191;94;21171;-66
2020/12/05 05:24:15;;;;;;;17.47;8.73;;;;;;;8.52;70.58;97974.09;1512068;94;21215;-65
2020/12/05 05:26:45;;;;;;;19.50;9.00;;;;;;;8.51;70.63;97972.52;1512109;94;21187;-65
2020/12/05 05:29:25;;;;;;;16.60;8.63;;;;;;;8.51;70.69;97981.22;1510318;95;21187;-65
2020/12/05 05:31:56;;;;;;;18.70;9.17;;;;;;;8.50;70.71;97989.10;1511860;95;21207;-64
2020/12/05 05:34:22;;;;;;;18.10;8.37;;;;;;;8.49;70.82;97986.17;1511833;94;21195;-65
2020/12/05 05:36:50;;;;;;;20.13;8.77;;;;;;;8.50;70.80;97999.34;1512497;95;21607;-63
2020/12/05 05:39:18;;;;;;;19.70;9.57;;;;;;;8.48;70.86;98006.22;1512192;94;21639;-65
2020/12/05 05:41:51;;;;;;;18.53;9.67;;;;;;;8.49;70.90;98009.14;1512460;95;21636;-67
2020/12/05 05:44:21;;;;;;;17.53;8.53;;;;;;;8.47;70.83;98020.30;1512564;94;21183;-67
2020/12/05 05:46:49;;;;;;;18.70;8.87;;;;;;;8.47;70.90;98013.53;1512142;95;21592;-67
2020/12/05 05:49:32;;;;;;;17.10;8.30;;;;;;;8.50;70.84;98013.42;1512445;94;21179;-68
2020/12/05 05:52:03;;;;;;;19.10;9.23;;;;;;;8.49;70.93;98019.39;1511421;95;21310;-67
2020/12/05 05:54:36;;;;;;;18.47;8.90;;;;;;;8.49;70.89;98025.36;1512194;95;21617;-67
2020/12/05 05:57:13;;;;;;;16.60;9.03;;;;;;;8.48;70.87;98034.03;1512388;95;21203;-67
2020/12/05 05:59:44;;;;;;;18.10;8.90;;;;;;;8.47;70.90;98028.99;1512564;94;21176;-66
2020/12/05 06:02:14;;;;;;;17.70;9.67;;;;;;;8.47;70.91;98035.16;1512340;94;21738;-67
2020/12/05 06:04:43;;;;;;;17.13;8.87;;;;;;;8.46;71.02;98031.47;1511180;95;21191;-68
2020/12/05 06:07:17;;;;;;;18.60;10.10;;;;;;;8.49;71.06;98037.52;1512207;94;21147;-68
2020/12/05 06:09:51;;;;;;;16.20;7.90;;;;;;;8.51;71.04;98040.09;1512263;94;21191;-66
2020/12/05 06:12:24;;;;;;;18.47;9.37;;;;;;;8.57;71.04;98044.12;1512159;95;21325;-69
2020/12/05 06:14:52;;;;;;;18.50;9.03;;;;;;;8.63;70.98;98044.63;1512184;94;21211;-67
2020/12/05 06:17:19;;;;;;;19.43;8.67;;;;;;;8.71;70.89;98061.24;1521862;94;21199;-67
2020/12/05 06:19:49;;;;;;;18.17;9.30;;;;;;;8.79;70.81;98056.23;1523199;94;21167;-66
2020/12/05 06:22:51;;;;;;;18.30;9.00;;;;;;;8.88;70.68;98057.41;1522813;94;21661;-66
2020/12/05 06:25:19;;;;;;;14.97;8.03;;;;;;;8.95;70.54;98059.72;1523065;94;21214;-68
2020/12/05 06:27:57;;;;;;;18.47;9.53;;;;;;;9.01;70.41;98062.36;1523304;94;21264;-67
2020/12/05 06:30:25;;;;;;;21.23;10.50;;;;;;;9.05;70.32;98073.27;1519212;94;21127;-67
2020/12/05 06:32:55;;;;;;;19.50;10.50;;;;;;;9.04;70.39;98065.71;1523355;94;21575;-65
2020/12/05 06:35:30;;;;;;;19.87;8.97;;;;;;;9.03;70.43;98069.57;1499964;94;21608;-66
2020/12/05 06:37:57;;;;;;;20.43;9.20;;;;;;;9.06;70.43;98068.08;1523210;94;21603;-68
2020/12/05 06:40:25;;;;;;;19.80;9.23;;;;;;;9.12;70.35;98072.07;1523177;94;21614;-68
2020/12/05 06:42:55;;;;;;;19.20;8.90;;;;;;;9.16;70.30;98066.97;1523594;94;21171;-68
2020/12/05 06:45:33;;;;;;;19.33;8.67;;;;;;;9.21;70.25;98064.00;1523110;94;21231;-67
2020/12/05 06:48:15;;;;;;;20.00;9.80;;;;;;;9.27;70.13;98070.47;1523187;94;21159;-67
2020/12/05 06:50:43;;;;;;;18.35;9.35;;;;;;;9.29;69.99;98077.69;1523469;94;21198;-66
2020/12/05 06:53:25;;;;;;;19.47;8.80;;;;;;;9.34;69.91;98089.57;1523150;94;21615;-65
2020/12/05 06:55:53;;;;;;;19.95;9.18;;;;;;;9.39;69.83;98093.37;1523187;94;21197;-67
2020/12/05 06:58:29;;;;;;;19.23;9.30;;;;;;;9.44;69.61;98095.81;1523030;94;21188;-65
2020/12/05 07:00:56;;;;;;;17.40;8.70;;;;;;;9.49;69.48;98107.70;1522402;94;21661;-66
2020/12/05 07:03:28;;;;;;;17.77;8.93;;;;;;;9.52;69.38;98099.66;1523424;94;21167;-66
2020/12/05 07:05:55;;;;;;;22.00;10.05;;;;;;;9.56;69.24;98101.11;1522469;94;21190;-65
2020/12/05 07:08:36;;;;;;;20.20;9.33;;;;;;;9.58;69.21;98094.77;1523120;94;21219;-66
2020/12/05 07:11:07;;;;;;;18.97;9.43;;;;;;;9.62;69.15;98091.56;1523380;94;21191;-67
2020/12/05 07:13:46;;;;;;;17.48;8.70;;;;;;;9.65;69.08;98090.28;1523502;94;21365;-68
2020/12/05 07:16:22;;;;;;;19.07;9.77;;;;;;;9.68;68.97;98092.28;1519604;94;21242;-68
2020/12/05 07:18:57;;;;;;;22.43;9.63;;;;;;;9.75;68.87;98091.64;1511525;94;21206;-67
2020/12/05 07:21:26;;;;;;;18.50;8.77;;;;;;;9.76;68.73;98091.07;1512550;95;21192;-67
2020/12/05 07:27:35;;;;;;;19.53;9.10;;;;;;;9.88;68.46;98107.98;1512123;95;21302;-68
2020/12/05 07:30:03;;;;;;;14.77;7.53;;;;;;;9.97;68.01;98107.19;1512137;95;21344;-68
2020/12/05 07:32:35;;;;;;;17.10;8.17;;;;;;;10.03;67.87;98107.13;1512125;94;21175;-68
2020/12/05 07:35:05;;;;;;;18.87;9.00;;;;;;;10.11;67.50;98116.98;1512194;95;21337;-68
2020/12/05 07:37:34;;;;;;;17.17;7.93;;;;;;;10.24;67.51;98108.14;1492202;95;21596;-66
2020/12/05 07:43:43;;;;;;;17.20;8.53;;;;;;;10.38;67.23;98099.52;1512216;95;21147;-68
2020/12/05 07:46:12;;;;;;;17.73;8.90;;;;;;;10.42;67.03;98101.13;1512487;94;21207;-66
2020/12/05 07:48:39;;;;;;;16.73;8.30;;;;;;;10.49;67.01;98114.84;1512606;95;21923;-66
2020/12/05 07:51:14;;;;;;;22.57;9.77;;;;;;;10.56;66.96;98109.55;1512099;94;21195;-65
2020/12/05 07:53:41;;;;;;;17.80;9.40;;;;;;;10.62;66.73;98114.08;1512462;95;21650;-69
2020/12/05 07:59:53;;;;;;;17.93;8.77;;;;;;;10.77;66.37;98121.33;1512248;95;21274;-59
2020/12/05 08:02:55;;;;;;;16.90;8.50;;;;;;;10.83;66.01;98131.32;1508890;95;21168;-68
2020/12/05 08:05:51;;;;;;;16.50;8.60;;;;;;;10.90;65.99;98134.94;1512099;94;21363;-63
2020/12/05 08:08:18;;;;;;;17.98;8.75;;;;;;;11.02;65.79;98139.41;1512122;94;21758;-66
2020/12/05 08:10:45;;;;;;;16.75;8.68;;;;;;;11.06;65.51;98130.16;1512392;94;21226;-67
2020/12/05 08:13:24;;;;;;;18.03;9.03;;;;;;;11.14;65.36;98129.70;1491937;94;21171;-65
2020/12/05 08:16:04;;;;;;;15.40;8.15;;;;;;;11.22;65.33;98130.59;1512427;94;21151;-65
2020/12/05 08:18:36;;;;;;;14.28;7.85;;;;;;;11.26;65.21;98136.30;1512202;95;21321;-64
2020/12/05 08:21:06;;;;;;;13.50;7.67;;;;;;;11.32;65.02;98133.47;1512290;94;21172;-65
2020/12/05 08:23:37;;;;;;;15.85;7.53;;;;;;;11.37;64.95;98138.60;1512571;94;21321;-67
2020/12/05 08:26:10;;;;;;;15.68;7.75;;;;;;;11.41;64.74;98142.16;1512099;94;21321;-67
2020/12/05 08:28:40;;;;;;;16.62;8.78;;;;;;;11.45;64.48;98141.64;1511884;94;21179;-67
2020/12/05 08:31:11;;;;;;;16.02;8.30;;;;;;;11.56;64.45;98154.02;1511759;95;21463;-67
2020/12/05 08:33:48;;;;;;;16.05;8.60;;;;;;;11.61;64.20;98154.50;1511949;94;21218;-67
2020/12/05 08:36:22;;;;;;;15.05;8.25;;;;;;;11.71;64.09;98168.05;1511957;94;21643;-66
2020/12/05 08:38:49;;;;;;;17.55;8.98;;;;;;;11.78;63.90;98156.48;1511924;94;21195;-66
2020/12/05 08:41:16;;;;;;;19.48;8.43;;;;;;;11.87;63.70;98161.88;1511825;94;21155;-67
2020/12/05 08:43:42;;;;;;;16.57;7.90;;;;;;;11.94;63.48;98163.33;1511841;95;21238;-67
2020/12/05 08:46:17;;;;;;;18.85;9.45;;;;;;;12.02;63.25;98163.64;1511208;94;21207;-67
2020/12/05 08:48:44;;;;;;;16.97;8.28;;;;;;;12.13;63.12;98168.42;1511887;95;21168;-67
2020/12/05 08:51:11;;;;;;;16.77;8.53;;;;;;;12.15;62.88;98170.22;1511668;94;21229;-65
2020/12/05 08:53:38;;;;;;;16.12;8.08;;;;;;;12.22;62.69;98167.58;1511963;94;21253;-65
2020/12/05 08:56:05;;;;;;;15.18;7.78;;;;;;;12.33;62.46;98172.00;1511744;95;21352;-68
2020/12/05 08:58:43;;;;;;;19.35;9.18;;;;;;;12.44;62.26;98168.05;1511637;95;21226;-68
2020/12/05 09:01:10;;;;;;;17.55;8.85;;;;;;;12.51;61.92;98174.34;1511693;95;21325;-67
2020/12/05 09:03:38;;;;;;;18.65;9.00;;;;;;;12.59;61.68;98171.13;1511776;95;21187;-66
2020/12/05 09:06:05;;;;;;;13.93;7.58;;;;;;;12.65;61.52;98171.56;1511295;94;21568;-66
2020/12/05 09:08:32;;;;;;;14.30;7.78;;;;;;;12.67;61.20;98162.47;1511585;95;21782;-67
2020/12/05 09:10:59;;;;;;;13.00;7.75;;;;;;;12.67;61.07;98162.47;1511617;94;21218;-66
2020/12/05 09:13:26;;;;;;;19.32;8.15;;;;;;;12.69;61.05;98156.06;1511628;94;21337;-67
2020/12/05 09:16:02;;;;;;;15.70;7.83;;;;;;;12.74;60.96;98161.19;1511613;95;21203;-67
2020/12/05 09:18:48;;;;;;;19.20;9.08;;;;;;;12.82;60.92;98170.99;1511860;95;21195;-67
2020/12/05 09:21:20;;;;;;;19.32;9.48;;;;;;;12.82;60.89;98166.30;1511471;95;21179;-66
2020/12/05 09:24:05;;;;;;;21.55;9.43;;;;;;;12.88;60.71;98156.66;1511807;94;21195;-66
2020/12/05 09:26:33;;;;;;;16.32;8.18;;;;;;;12.93;60.55;98156.33;1511896;94;21436;-67
2020/12/05 09:29:00;;;;;;;18.92;9.23;;;;;;;12.90;60.30;98151.61;1511830;94;21168;-67
2020/12/05 09:31:28;;;;;;;17.90;9.15;;;;;;;12.96;60.33;98152.07;1511808;95;21211;-68
2020/12/05 09:33:54;;;;;;;18.27;8.53;;;;;;;13.02;60.20;98151.34;1511682;94;21710;-67
2020/12/05 09:36:21;;;;;;;18.80;9.10;;;;;;;13.10;60.10;98152.80;1511676;94;21743;-68
2020/12/05 09:38:48;;;;;;;18.35;9.20;;;;;;;13.17;59.96;98147.41;1511586;94;21195;-67
2020/12/05 09:41:15;;;;;;;15.32;8.88;;;;;;;13.21;59.78;98141.41;1511690;95;21242;-67
2020/12/05 09:43:42;;;;;;;19.17;9.28;;;;;;;13.27;59.75;98134.48;1511679;94;21176;-68
2020/12/05 09:46:09;;;;;;;18.52;9.63;;;;;;;13.33;59.66;98136.47;1511982;95;21282;-66
2020/12/05 09:48:36;;;;;;;17.27;9.13;;;;;;;13.33;59.44;98139.20;1511581;94;21349;-66
2020/12/05 09:51:02;;;;;;;18.32;9.60;;;;;;;13.30;59.40;98135.87;1511666;94;21234;-67
2020/12/05 09:53:31;;;;;;;18.35;9.15;;;;;;;13.29;59.43;98137.02;1511738;95;21520;-66
2020/12/05 09:59:40;;;;;;;18.27;8.88;;;;;;;13.35;59.43;98140.95;1511608;95;21199;-67
2020/12/05 10:02:06;;;;;;;19.60;10.18;;;;;;;13.35;59.33;98135.50;1511703;94;21273;-67
2020/12/05 10:04:33;;;;;;;19.00;9.68;;;;;;;13.43;59.20;98133.03;1511616;95;21180;-67
2020/12/05 10:07:00;;;;;;;17.10;10.08;;;;;;;13.52;59.01;98136.80;1511652;94;21192;-68
2020/12/05 10:09:27;;;;;;;19.02;9.83;;;;;;;13.55;58.96;98136.04;1511944;95;21135;-66
2020/12/05 10:15:36;;;;;;;17.73;9.20;;;;;;;13.61;58.62;98139.96;1511707;95;21670;-66
2020/12/05 10:18:03;;;;;;;17.92;8.85;;;;;;;13.67;58.49;98135.73;1511598;94;21860;-66
2020/12/05 10:20:31;;;;;;;17.62;9.50;;;;;;;13.73;58.24;98134.78;1511551;95;21238;-68
2020/12/05 10:22:58;;;;;;;16.48;8.73;;;;;;;13.77;58.07;98132.28;1511919;94;21184;-69
2020/12/05 10:25:25;;;;;;;16.30;9.08;;;;;;;13.75;57.92;98136.56;1511582;94;21163;-68
2020/12/05 10:27:52;;;;;;;18.23;9.15;;;;;;;13.81;57.90;98140.48;1511627;95;21191;-69
2020/12/05 10:30:19;;;;;;;17.85;8.90;;;;;;;13.82;57.63;98137.39;1511307;95;21778;-67
2020/12/05 10:32:47;;;;;;;18.00;9.03;;;;;;;13.88;57.72;98137.22;1511650;95;21277;-68
2020/12/05 10:35:14;;;;;;;16.65;8.90;;;;;;;13.83;57.29;98137.59;1511831;94;21186;-67
2020/12/05 10:37:41;;;;;;;18.35;9.23;;;;;;;13.93;57.27;98147.77;1511612;95;21257;-68
2020/12/05 10:43:49;;;;;;;18.52;7.10;;;;;;;14.16;56.88;98146.70;1511916;95;21326;-68
2020/12/05 10:46:16;;;;;;;15.30;8.18;;;;;;;14.28;56.53;98153.98;1512050;94;21159;-67
2020/12/05 10:48:43;;;;;;;15.58;8.05;;;;;;;14.39;56.20;98158.14;1512009;95;21155;-66
2020/12/05 10:51:10;;;;;;;12.63;7.55;;;;;;;14.43;55.86;98158.33;1512265;94;21418;-66
2020/12/05 10:53:37;;;;;;;14.93;7.97;;;;;;;14.50;55.53;98161.11;1512061;95;21196;-64
2020/12/05 10:59:46;;;;;;;16.37;7.78;;;;;;;14.60;55.12;98160.15;1512043;95;21608;-65
2020/12/05 11:02:13;;;;;;;16.02;8.30;;;;;;;14.62;55.19;98162.68;1512139;94;21148;-64
2020/12/05 11:04:40;;;;;;;13.58;7.67;;;;;;;14.73;55.02;98160.00;1512452;95;21179;-64
2020/12/05 11:07:07;;;;;;;18.82;8.70;;;;;;;14.76;54.83;98157.28;1511942;95;21742;-63
2020/12/05 11:09:33;;;;;;;17.45;7.33;;;;;;;14.78;54.66;98159.03;1512173;94;21183;-65
2020/12/05 11:15:42;;;;;;;12.10;6.70;;;;;;;14.85;54.34;98159.04;1512103;95;21391;-66
2020/12/05 11:18:10;;;;;;;14.90;7.12;;;;;;;14.83;54.20;98155.14;1518567;94;21269;-64
2020/12/05 11:20:37;;;;;;;14.55;7.22;;;;;;;14.82;54.24;98150.84;1522990;94;21225;-68
2020/12/05 11:23:04;;;;;;;16.23;7.60;;;;;;;14.77;54.10;98156.09;1523305;94;21183;-68
2020/12/05 11:25:30;;;;;;;14.10;7.58;;;;;;;14.70;54.29;98153.34;1522873;94;21726;-70
2020/12/05 11:27:57;;;;;;;14.07;7.37;;;;;;;14.67;54.21;98158.22;1499341;94;21194;-71
2020/12/05 11:30:24;;;;;;;17.77;7.33;;;;;;;14.62;54.30;98153.73;1522857;94;21147;-70
2020/12/05 11:32:51;;;;;;;13.65;7.10;;;;;;;14.61;54.53;98159.77;1519291;94;21289;-67
2020/12/05 11:35:18;;;;;;;13.25;7.45;;;;;;;14.65;54.36;98157.05;1523030;94;21691;-65
2020/12/05 11:37:45;;;;;;;15.63;7.12;;;;;;;14.56;54.69;98161.50;1523007;94;21626;-61
2020/12/05 11:40:11;;;;;;;15.10;7.28;;;;;;;14.68;54.46;98167.98;1522912;94;21158;-68
2020/12/05 11:42:38;;;;;;;14.45;7.17;;;;;;;14.74;54.33;98160.18;1522829;94;21180;-66
2020/12/05 11:45:05;;;;;;;14.33;7.42;;;;;;;14.80;54.07;98159.44;1522974;94;21195;-67
2020/12/05 11:47:32;;;;;;;17.05;8.45;;;;;;;14.80;53.76;98162.17;1522893;94;21230;-68
2020/12/05 11:49:59;;;;;;;16.17;7.47;;;;;;;14.78;53.83;98174.05;1522963;94;21197;-66
2020/12/05 11:52:26;;;;;;;16.95;7.87;;;;;;;14.81;53.87;98175.24;1522866;94;21198;-64
2020/12/05 11:54:52;;;;;;;13.98;8.40;;;;;;;14.75;53.78;98182.22;1523109;94;21169;-65
2020/12/05 12:01:01;;;;;;;12.33;6.87;;;;;;;14.74;53.90;98183.38;1522839;94;21156;-63
2020/12/05 12:03:28;;;;;;;11.93;6.62;;;;;;;14.74;53.83;98189.63;1522960;94;21209;-64
2020/12/05 12:05:55;;;;;;;13.60;7.03;;;;;;;14.70;53.77;98192.14;1522997;94;21179;-64
2020/12/05 12:08:22;;;;;;;14.50;6.40;;;;;;;14.68;53.76;98191.18;1522968;94;21218;-64
2020/12/05 12:10:49;;;;;;;13.85;7.17;;;;;;;14.67;53.71;98190.19;1523033;94;21697;-65
2020/12/05 12:13:15;;;;;;;15.20;7.30;;;;;;;14.63;53.67;98190.18;1523207;94;21225;-66
2020/12/05 12:15:42;;;;;;;14.23;6.60;;;;;;;14.58;53.78;98196.61;1523119;94;21187;-65
2020/12/05 12:18:09;;;;;;;13.75;7.30;;;;;;;14.59;53.85;98200.30;1523003;94;21163;-71
2020/12/05 12:20:36;;;;;;;17.12;7.72;;;;;;;14.61;53.90;98199.34;1523056;94;21239;-71
2020/12/05 12:23:03;;;;;;;16.42;8.48;;;;;;;14.62;53.79;98205.59;1523120;94;21179;-71
2020/12/05 12:25:30;;;;;;;12.10;7.10;;;;;;;14.62;53.84;98206.95;1522953;94;21186;-70
2020/12/05 12:27:57;;;;;;;13.15;7.28;;;;;;;14.61;53.77;98212.21;1523118;94;21602;-67
2020/12/05 12:30:24;;;;;;;14.43;6.95;;;;;;;14.59;53.78;98208.48;1523121;94;21205;-70
2020/12/05 12:32:51;;;;;;;13.70;7.00;;;;;;;14.58;53.75;98206.95;1522976;94;21159;-68